Time;durP1;ratioP1;P1;durP2;ratioP2;P2;SDS_P1;SDS_P2;PMS_P1;PMS_P2;Temp;Humidity;BMP_temperature;BMP_pressure;BME280_temperature;BME280_humidity;BME280_pressure;Samples;Min_cycle;Max_cycle;Signal;HPM_P1;HPM_P2
2022/09/21 00:01:08;;;;;;;;;;;;;;;21.51;29.99;97892.69;4996546;28;937;-79
2022/09/21 00:03:34;;;;;;;;;;;;;;;21.24;30.28;97901.47;5019578;28;857;-79
2022/09/21 00:06:03;;;;;;;;;;;;;;;21.19;30.45;97899.19;5019664;28;743;-79
2022/09/21 00:08:28;;;;;;;;;;;;;;;21.07;30.49;97892.19;5021130;28;750;-78
2022/09/21 00:10:54;;;;;;;;;;;;;;;20.87;31.18;97887.88;5020675;28;1914;-78
2022/09/21 00:13:20;;;;;;;;;;;;;;;20.98;30.95;97891.25;5003298;28;751;-79
2022/09/21 00:15:45;;;;;;;;;;;;;;;20.78;31.11;97894.19;5020884;28;849;-78
2022/09/21 00:18:12;;;;;;;;;;;;;;;20.75;31.42;97887.38;5002354;28;1153;-79
2022/09/21 00:20:39;;;;;;;;;;;;;;;20.99;30.78;97887.97;5020591;28;800;-79
2022/09/21 00:23:04;;;;;;;;;;;;;;;21.00;30.74;97891.59;5003478;28;1151;-79
2022/09/21 00:25:30;;;;;;;;;;;;;;;21.00;30.67;97891.59;5020220;28;786;-79
2022/09/21 00:27:55;;;;;;;;;;;;;;;21.06;30.58;97896.28;5003132;28;1221;-78
2022/09/21 00:30:21;;;;;;;;;;;;;;;21.02;30.60;97895.56;5020427;28;1980;-79
2022/09/21 00:32:46;;;;;;;;;;;;;;;21.16;30.88;97896.44;5020277;28;815;-79
2022/09/21 00:35:12;;;;;;;;;;;;;;;21.18;31.08;97894.75;5020045;28;767;-78
2022/09/21 00:37:37;;;;;;;;;;;;;;;21.49;30.08;97886.66;5019063;28;743;-79
2022/09/21 00:40:03;;;;;;;;;;;;;;;21.14;30.53;97891.25;5002677;28;1230;-79
2022/09/21 00:42:32;;;;;;;;;;;;;;;20.91;30.88;97899.91;5018964;28;786;-79
2022/09/21 00:44:58;;;;;;;;;;;;;;;21.04;30.71;97897.97;5019198;28;1272;-79
2022/09/21 00:47:27;;;;;;;;;;;;;;;21.14;30.38;97899.72;5018853;28;732;-79
2022/09/21 00:49:53;;;;;;;;;;;;;;;20.85;31.04;97898.88;5018748;28;1902;-78
2022/09/21 00:52:18;;;;;;;;;;;;;;;20.76;31.57;97900.25;5018940;28;763;-79
2022/09/21 00:54:45;;;;;;;;;;;;;;;20.59;31.60;97895.06;5002754;28;1088;-79
2022/09/21 00:57:11;;;;;;;;;;;;;;;20.73;31.54;97894.72;5002642;28;1214;-78
2022/09/21 00:59:37;;;;;;;;;;;;;;;20.69;31.55;97889.16;5002337;28;704;-78
2022/09/21 01:02:03;;;;;;;;;;;;;;;20.74;31.42;97885.78;5002382;28;851;-79
2022/09/21 01:08:03;;;;;;;;;;;;;;;21.29;30.53;97903.75;5019655;28;668;-79
2022/09/21 01:10:30;;;;;;;;;;;;;;;21.32;30.60;97891.56;5018143;28;1951;-79
2022/09/21 01:13:00;;;;;;;;;;;;;;;21.21;30.58;97902.34;5018386;28;720;-79
2022/09/21 01:15:28;;;;;;;;;;;;;;;21.07;30.40;97897.84;5018118;28;869;-79
2022/09/21 01:18:12;;;;;;;;;;;;;;;20.75;30.80;97893.03;5002020;28;709;-79
2022/09/21 01:20:38;;;;;;;;;;;;;;;20.86;30.79;97891.97;5019837;28;791;-79
2022/09/21 01:23:03;;;;;;;;;;;;;;;20.72;30.93;97876.13;5002374;28;1192;-79
2022/09/21 01:25:32;;;;;;;;;;;;;;;20.66;30.92;97887.19;5019722;28;797;-79
2022/09/21 01:28:20;;;;;;;;;;;;;;;20.66;30.95;97890.00;5018180;28;767;-79
2022/09/21 01:30:46;;;;;;;;;;;;;;;21.20;30.18;97891.50;4997165;28;1906;-79
2022/09/21 01:33:16;;;;;;;;;;;;;;;21.33;30.16;97876.19;4981600;28;1119;-79
2022/09/21 01:35:43;;;;;;;;;;;;;;;21.14;30.17;97881.94;4981203;28;857;-79
2022/09/21 01:38:20;;;;;;;;;;;;;;;21.02;30.26;97883.47;4965204;28;1131;-78
2022/09/21 01:40:47;;;;;;;;;;;;;;;20.76;30.46;97869.16;4997204;28;750;-79
2022/09/21 01:43:14;;;;;;;;;;;;;;;20.75;30.79;97873.22;4981194;28;862;-78
2022/09/21 01:45:40;;;;;;;;;;;;;;;21.11;30.25;97880.81;4981040;28;1116;-79
2022/09/21 01:48:05;;;;;;;;;;;;;;;21.43;29.54;97876.34;4981506;28;865;-79
2022/09/21 01:50:31;;;;;;;;;;;;;;;21.27;29.67;97866.63;4976921;28;1906;-79
2022/09/21 01:53:08;;;;;;;;;;;;;;;20.94;30.48;97876.41;4981069;28;1337;-79
2022/09/21 01:55:36;;;;;;;;;;;;;;;20.97;30.55;97875.50;4964756;28;832;-79
2022/09/21 01:58:21;;;;;;;;;;;;;;;20.92;30.57;97873.22;4980829;28;727;-79
2022/09/21 02:04:25;;;;;;;;;;;;;;;20.64;31.26;97869.09;4977501;28;637;-79
2022/09/21 02:06:50;;;;;;;;;;;;;;;20.92;30.82;97864.72;4961165;28;968;-79
2022/09/21 02:09:16;;;;;;;;;;;;;;;20.98;30.74;97866.56;4961079;28;1910;-79
2022/09/21 02:15:17;;;;;;;;;;;;;;;21.25;31.06;97871.16;4977591;28;645;-79
2022/09/21 02:17:46;;;;;;;;;;;;;;;21.35;30.68;97866.44;4960956;28;1007;-78
2022/09/21 02:20:27;;;;;;;;;;;;;;;21.34;30.38;97876.97;4961342;28;764;-79
2022/09/21 02:23:02;;;;;;;;;;;;;;;21.29;30.54;97869.78;4960235;28;756;-79
2022/09/21 02:25:33;;;;;;;;;;;;;;;21.07;30.82;97880.09;4960937;28;1104;-79
2022/09/21 02:28:05;;;;;;;;;;;;;;;21.13;30.72;97866.19;4960836;28;771;-79
2022/09/21 02:30:30;;;;;;;;;;;;;;;20.96;31.12;97866.22;4976739;28;1914;-79
2022/09/21 02:33:20;;;;;;;;;;;;;;;20.81;31.60;97868.63;4960720;28;795;-79
2022/09/21 02:35:53;;;;;;;;;;;;;;;21.01;31.02;97870.56;4976755;28;736;-79
2022/09/21 02:38:19;;;;;;;;;;;;;;;20.89;31.21;97868.47;4997307;28;1173;-79
2022/09/21 02:41:05;;;;;;;;;;;;;;;21.20;31.17;97860.38;5018276;28;798;-78
2022/09/21 02:43:35;;;;;;;;;;;;;;;21.44;30.86;97870.22;4995944;28;1246;-79
2022/09/21 02:46:04;;;;;;;;;;;;;;;21.22;30.76;97864.31;4979995;28;1129;-78
2022/09/21 02:48:31;;;;;;;;;;;;;;;21.10;31.12;97867.09;4979956;28;1386;-78
2022/09/21 02:50:57;;;;;;;;;;;;;;;20.96;30.97;97869.06;4980260;28;1906;-79
2022/09/21 02:53:24;;;;;;;;;;;;;;;21.10;31.03;97867.91;4983836;28;1176;-79
2022/09/21 02:55:50;;;;;;;;;;;;;;;20.72;31.61;97865.63;4990441;28;1369;-79
2022/09/21 02:58:16;;;;;;;;;;;;;;;21.05;30.98;97860.75;4964794;28;1279;-78
2022/09/21 03:00:42;;;;;;;;;;;;;;;21.00;31.11;97869.78;4959650;28;1243;-79
2022/09/21 03:03:16;;;;;;;;;;;;;;;21.00;31.05;97872.59;4959380;28;1335;-79
2022/09/21 03:05:42;;;;;;;;;;;;;;;20.87;31.46;97871.72;4957701;28;1248;-77
2022/09/21 03:08:07;;;;;;;;;;;;;;;20.70;31.82;97861.66;4959580;28;1382;-78
2022/09/21 03:10:34;;;;;;;;;;;;;;;21.10;31.61;97873.56;4927220;28;1919;-79
2022/09/21 03:13:00;;;;;;;;;;;;;;;21.30;31.09;97865.75;4975364;28;1290;-78
2022/09/21 03:15:26;;;;;;;;;;;;;;;21.49;30.80;97854.72;4992856;28;1299;-78
2022/09/21 03:17:52;;;;;;;;;;;;;;;21.01;31.53;97870.56;4978753;28;1278;-79
2022/09/21 03:20:17;;;;;;;;;;;;;;;20.96;31.33;97868.28;4994965;28;1207;-78
2022/09/21 03:22:43;;;;;;;;;;;;;;;20.99;31.19;97867.41;4976968;28;1231;-79
2022/09/21 03:25:11;;;;;;;;;;;;;;;20.79;31.38;97859.81;4994559;28;1282;-79
2022/09/21 03:27:36;;;;;;;;;;;;;;;20.75;31.42;97856.25;4978293;28;1259;-79
2022/09/21 03:30:02;;;;;;;;;;;;;;;20.75;31.51;97870.41;4994724;28;1906;-78
2022/09/21 03:32:27;;;;;;;;;;;;;;;21.01;31.43;97870.56;4963127;28;1178;-79
2022/09/21 03:34:53;;;;;;;;;;;;;;;21.45;30.60;97873.84;4998314;28;949;-78
2022/09/21 03:37:18;;;;;;;;;;;;;;;21.29;30.53;97869.78;5015222;28;929;-78
2022/09/21 03:39:46;;;;;;;;;;;;;;;21.30;30.59;97871.44;4999394;28;1678;-79
2022/09/21 03:42:12;;;;;;;;;;;;;;;21.09;30.68;97871.97;4963908;28;1667;-78
2022/09/21 03:44:39;;;;;;;;;;;;;;;21.02;30.62;97872.16;4992701;28;1465;-78
2022/09/21 03:50:40;;;;;;;;;;;;;;;21.36;30.40;97871.66;4995491;28;1981;-78
2022/09/21 03:53:06;;;;;;;;;;;;;;;21.36;30.06;97873.72;4979195;28;778;-79
2022/09/21 03:55:32;;;;;;;;;;;;;;;21.12;30.75;97875.94;4979295;28;943;-78
2022/09/21 03:57:57;;;;;;;;;;;;;;;20.98;30.94;97877.09;4977239;28;1654;-78
2022/09/21 04:00:22;;;;;;;;;;;;;;;20.80;30.94;97884.00;4957499;28;1370;-78
2022/09/21 04:02:48;;;;;;;;;;;;;;;20.78;30.86;97886.50;4962527;28;1427;-78
2022/09/21 04:05:14;;;;;;;;;;;;;;;20.97;30.60;97892.47;5000069;28;1202;-78
2022/09/21 04:07:39;;;;;;;;;;;;;;;21.11;30.88;97886.47;5018261;28;1619;-78
2022/09/21 04:10:05;;;;;;;;;;;;;;;21.37;30.18;97880.94;5003038;28;1906;-78
2022/09/21 04:12:33;;;;;;;;;;;;;;;21.45;29.72;97885.16;4978882;28;976;-79
2022/09/21 04:15:01;;;;;;;;;;;;;;;21.14;30.21;97885.59;4962765;28;822;-78
2022/09/21 04:17:27;;;;;;;;;;;;;;;21.00;30.68;97885.94;4979983;28;1551;-78
2022/09/21 04:19:53;;;;;;;;;;;;;;;20.98;30.40;97885.56;4997717;28;1591;-78
2022/09/21 04:22:18;;;;;;;;;;;;;;;20.73;31.01;97878.53;4998264;28;792;-79
2022/09/21 04:24:44;;;;;;;;;;;;;;;21.11;30.71;97888.50;4998011;28;767;-78
2022/09/21 04:27:09;;;;;;;;;;;;;;;21.30;30.11;97877.09;5014868;28;1286;-78
2022/09/21 04:29:34;;;;;;;;;;;;;;;21.02;30.19;97889.13;4981942;28;1911;-78
2022/09/21 04:32:00;;;;;;;;;;;;;;;20.85;30.52;97884.72;4997455;28;1679;-79
2022/09/21 04:34:26;;;;;;;;;;;;;;;20.61;31.10;97892.56;4998148;28;1108;-79
2022/09/21 04:36:53;;;;;;;;;;;;;;;20.62;30.81;97894.94;4982000;28;1273;-78
2022/09/21 04:39:18;;;;;;;;;;;;;;;20.70;30.86;97890.72;4997503;28;1532;-79
2022/09/21 04:41:44;;;;;;;;;;;;;;;20.84;30.69;97892.41;5013763;28;1568;-78
2022/09/21 04:44:09;;;;;;;;;;;;;;;21.23;30.30;97896.25;5014069;28;1204;-78
2022/09/21 04:46:35;;;;;;;;;;;;;;;21.43;29.83;97890.47;5015437;28;1519;-78
2022/09/21 04:49:00;;;;;;;;;;;;;;;21.08;30.09;97893.00;5010750;28;1973;-78
2022/09/21 04:51:26;;;;;;;;;;;;;;;21.17;29.89;97896.00;5022039;28;873;-79
2022/09/21 04:53:51;;;;;;;;;;;;;;;20.85;30.53;97896.81;5039913;28;1799;-79
2022/09/21 04:56:17;;;;;;;;;;;;;;;20.70;30.70;97899.22;5005880;28;1208;-78
2022/09/21 04:58:42;;;;;;;;;;;;;;;21.24;30.15;97904.31;5021915;28;839;-78
2022/09/21 05:01:08;;;;;;;;;;;;;;;21.64;29.33;97901.22;5004961;28;936;-78
2022/09/21 05:03:33;;;;;;;;;;;;;;;21.31;29.67;97904.13;5021995;28;1140;-78
2022/09/21 05:05:59;;;;;;;;;;;;;;;21.16;30.03;97894.41;4988105;28;1753;-78
2022/09/21 05:11:13;;;;;;;;;;;;;;;20.75;30.59;97887.38;5008166;28;1977;-79
2022/09/21 05:13:38;;;;;;;;;;;;;;;21.02;31.03;97894.78;5039321;28;775;-78
2022/09/21 05:16:04;;;;;;;;;;;;;;;21.21;30.09;97901.56;5004441;28;959;-78
2022/09/21 05:18:29;;;;;;;;;;;;;;;21.36;29.99;97896.34;5021515;28;1228;-79
2022/09/21 05:20:55;;;;;;;;;;;;;;;21.11;30.18;97903.44;5016661;28;892;-79
2022/09/21 05:23:21;;;;;;;;;;;;;;;20.93;30.66;97894.59;5001014;28;960;-78
2022/09/21 05:25:47;;;;;;;;;;;;;;;20.76;30.77;97894.63;5017202;28;1085;-79
2022/09/21 05:28:12;;;;;;;;;;;;;;;21.03;30.50;97896.34;5017085;28;1207;-78
2022/09/21 05:30:38;;;;;;;;;;;;;;;20.84;30.72;97892.41;4984196;28;1918;-78
2022/09/21 05:33:03;;;;;;;;;;;;;;;20.81;30.93;97896.91;5000575;28;799;-79
2022/09/21 05:35:29;;;;;;;;;;;;;;;20.85;30.85;97894.00;5000602;28;1254;-78
2022/09/21 05:37:54;;;;;;;;;;;;;;;21.14;30.44;97893.25;4984225;28;1258;-78
2022/09/21 05:40:20;;;;;;;;;;;;;;;21.39;29.98;97889.78;5017014;28;925;-79
2022/09/21 05:42:45;;;;;;;;;;;;;;;21.13;30.29;97898.13;5000312;28;1515;-79
2022/09/21 05:45:12;;;;;;;;;;;;;;;21.05;30.37;97896.72;5016663;28;734;-78
2022/09/21 05:47:39;;;;;;;;;;;;;;;20.95;30.69;97894.97;5016591;28;779;-78
2022/09/21 05:50:16;;;;;;;;;;;;;;;20.75;30.89;97887.38;5016095;28;1922;-78
2022/09/21 05:53:02;;;;;;;;;;;;;;;21.04;30.85;97893.09;5017920;28;803;-79
2022/09/21 05:55:33;;;;;;;;;;;;;;;21.22;30.63;97889.78;5020252;28;1194;-79
2022/09/21 05:57:59;;;;;;;;;;;;;;;21.30;29.91;97894.06;5037170;28;843;-78
2022/09/21 06:04:00;;;;;;;;;;;;;;;20.89;30.61;97902.41;5038793;28;691;-78
2022/09/21 06:06:25;;;;;;;;;;;;;;;20.90;30.65;97904.78;5019646;28;1537;-79
2022/09/21 06:08:51;;;;;;;;;;;;;;;20.94;30.54;97902.66;5037247;28;1483;-78
2022/09/21 06:11:16;;;;;;;;;;;;;;;20.97;30.54;97909.44;5021222;28;1985;-78
2022/09/21 06:13:42;;;;;;;;;;;;;;;20.87;30.71;97914.13;5003702;28;945;-79
2022/09/21 06:16:08;;;;;;;;;;;;;;;20.77;30.74;97901.84;5004492;28;1236;-78
2022/09/21 06:18:38;;;;;;;;;;;;;;;21.10;30.47;97918.81;5020641;28;766;-78
2022/09/21 06:21:03;;;;;;;;;;;;;;;21.32;30.17;97928.38;5004570;28;1236;-78
2022/09/21 06:23:29;;;;;;;;;;;;;;;21.15;30.39;97915.47;5017649;28;1535;-79
2022/09/21 06:25:54;;;;;;;;;;;;;;;21.06;30.24;97918.13;5018372;28;1467;-79
2022/09/21 06:28:20;;;;;;;;;;;;;;;21.15;30.07;97915.47;5038053;28;818;-79
2022/09/21 06:30:52;;;;;;;;;;;;;;;21.00;30.05;97920.69;5037935;28;1973;-78
2022/09/21 06:33:22;;;;;;;;;;;;;;;20.89;30.30;97925.03;5021095;28;815;-79
2022/09/21 06:35:54;;;;;;;;;;;;;;;20.97;30.50;97920.75;5020478;28;719;-78
2022/09/21 06:38:19;;;;;;;;;;;;;;;21.39;29.68;97929.41;5019933;28;1016;-78
2022/09/21 06:40:45;;;;;;;;;;;;;;;21.57;29.41;97929.72;5014701;28;1578;-78
2022/09/21 06:43:10;;;;;;;;;;;;;;;21.12;29.92;97927.66;5019952;28;1107;-78
2022/09/21 06:45:36;;;;;;;;;;;;;;;20.99;30.27;97926.78;5020430;28;763;-79
2022/09/21 06:48:01;;;;;;;;;;;;;;;20.84;30.56;97922.72;5037015;28;1487;-78
2022/09/21 06:50:26;;;;;;;;;;;;;;;20.64;30.46;97926.44;5019737;28;1954;-78
2022/09/21 06:52:52;;;;;;;;;;;;;;;20.58;30.55;97916.88;5003146;28;1566;-79
2022/09/21 06:55:17;;;;;;;;;;;;;;;20.60;30.52;97931.34;5012298;28;1499;-78
2022/09/21 06:57:43;;;;;;;;;;;;;;;20.77;30.33;97923.69;5015291;28;931;-79
2022/09/21 07:03:43;;;;;;;;;;;;;;;21.33;29.65;97929.94;5015728;28;622;-79
2022/09/21 07:06:14;;;;;;;;;;;;;;;20.98;30.05;97928.00;4999328;28;886;-78
2022/09/21 07:08:40;;;;;;;;;;;;;;;21.01;29.92;97933.59;4996972;28;1511;-79
2022/09/21 07:11:05;;;;;;;;;;;;;;;20.95;30.01;97934.56;4982953;28;1906;-78
2022/09/21 07:13:31;;;;;;;;;;;;;;;20.88;30.38;97938.38;5015215;28;829;-78
2022/09/21 07:15:56;;;;;;;;;;;;;;;20.80;30.39;97937.75;4982785;28;748;-78
2022/09/21 07:18:21;;;;;;;;;;;;;;;21.09;29.71;97937.03;4982588;28;1115;-78
2022/09/21 07:20:50;;;;;;;;;;;;;;;21.44;29.19;97937.34;4998924;28;1162;-78
2022/09/21 07:23:16;;;;;;;;;;;;;;;21.24;29.73;97935.44;4998011;28;1448;-79
2022/09/21 07:25:42;;;;;;;;;;;;;;;20.94;29.92;97938.63;4997768;28;1773;-79
2022/09/21 07:28:08;;;;;;;;;;;;;;;20.81;29.97;97942.16;4990042;28;899;-78
2022/09/21 07:30:34;;;;;;;;;;;;;;;20.69;30.12;97937.22;5003005;28;1914;-78
2022/09/21 07:33:00;;;;;;;;;;;;;;;20.92;29.85;97941.09;5037084;28;806;-78
2022/09/21 07:35:25;;;;;;;;;;;;;;;21.11;30.07;97926.06;4997773;28;1571;-78
2022/09/21 07:37:51;;;;;;;;;;;;;;;21.50;29.04;97930.72;5036095;28;1689;-78
2022/09/21 07:40:16;;;;;;;;;;;;;;;21.29;29.29;97932.03;5036863;28;809;-79
2022/09/21 07:42:43;;;;;;;;;;;;;;;20.85;29.87;97933.59;5019364;28;767;-78
2022/09/21 07:48:44;;;;;;;;;;;;;;;20.89;29.97;97928.66;5036822;28;609;-79
2022/09/21 07:51:11;;;;;;;;;;;;;;;20.70;30.24;97924.66;5007411;28;1913;-78
2022/09/21 07:53:36;;;;;;;;;;;;;;;20.95;30.01;97923.25;5016361;28;783;-79
2022/09/21 07:56:02;;;;;;;;;;;;;;;21.35;29.08;97925.88;4969678;28;1099;-78
2022/09/21 08:01:12;;;;;;;;;;;;;;;20.98;29.61;97916.69;5017156;28;1550;-79
2022/09/21 08:03:37;;;;;;;;;;;;;;;20.79;30.11;97913.53;5015986;28;1471;-78
2022/09/21 08:06:03;;;;;;;;;;;;;;;20.74;30.53;97913.28;5012605;28;1476;-78
2022/09/21 08:08:29;;;;;;;;;;;;;;;20.87;29.91;97916.16;5018496;28;1525;-78
2022/09/21 08:10:56;;;;;;;;;;;;;;;20.81;30.44;97916.69;5036411;28;1910;-78
2022/09/21 08:13:21;;;;;;;;;;;;;;;21.23;29.66;97916.84;5018925;28;778;-79
2022/09/21 08:19:24;;;;;;;;;;;;;;;20.92;29.94;97924.13;5036507;28;636;-78
2022/09/21 08:21:50;;;;;;;;;;;;;;;20.81;30.14;97919.53;5019740;28;1649;-78
2022/09/21 08:24:15;;;;;;;;;;;;;;;20.74;30.13;97918.94;5021830;28;1463;-79
2022/09/21 08:26:41;;;;;;;;;;;;;;;21.02;29.90;97932.34;5040222;28;822;-79
2022/09/21 08:29:07;;;;;;;;;;;;;;;20.75;30.46;97921.31;5040060;28;727;-79
2022/09/21 08:31:32;;;;;;;;;;;;;;;21.01;29.79;97921.47;5022493;28;1280;-78
2022/09/21 08:33:58;;;;;;;;;;;;;;;21.37;29.42;97926.25;5022358;28;798;-79
2022/09/21 08:36:24;;;;;;;;;;;;;;;21.57;29.01;97926.91;5038544;28;1300;-78
2022/09/21 08:38:49;;;;;;;;;;;;;;;21.29;29.49;97919.94;5034244;28;1512;-79
2022/09/21 08:41:15;;;;;;;;;;;;;;;20.99;29.70;97913.44;5039611;28;767;-79
2022/09/21 08:43:41;;;;;;;;;;;;;;;20.68;30.32;97917.88;5039875;28;810;-78
2022/09/21 08:46:15;;;;;;;;;;;;;;;20.93;29.61;97923.69;5039905;28;752;-78
2022/09/21 08:48:44;;;;;;;;;;;;;;;20.80;29.91;97917.94;5006112;28;1131;-79
2022/09/21 08:51:10;;;;;;;;;;;;;;;20.70;30.00;97910.53;5022572;28;1922;-78
2022/09/21 08:53:45;;;;;;;;;;;;;;;20.61;30.40;97915.97;5021598;28;1448;-79
2022/09/21 08:56:11;;;;;;;;;;;;;;;20.78;30.26;97916.81;4997524;28;946;-79
2022/09/21 08:58:39;;;;;;;;;;;;;;;21.03;29.84;97910.50;4981693;28;935;-78
2022/09/21 09:01:07;;;;;;;;;;;;;;;21.27;29.24;97911.88;4997172;28;1582;-78
2022/09/21 09:03:32;;;;;;;;;;;;;;;21.19;29.15;97907.69;4981614;28;797;-79
2022/09/21 09:06:02;;;;;;;;;;;;;;;20.99;29.70;97904.16;4981976;28;1144;-78
2022/09/21 09:08:31;;;;;;;;;;;;;;;20.81;29.85;97902.56;4965753;28;1285;-79
2022/09/21 09:11:02;;;;;;;;;;;;;;;20.88;30.09;97901.59;4994350;28;1915;-78
2022/09/21 09:13:41;;;;;;;;;;;;;;;20.68;30.28;97903.72;4997721;28;747;-78
2022/09/21 09:16:25;;;;;;;;;;;;;;;20.80;30.08;97895.31;4965662;28;1152;-78
2022/09/21 09:18:51;;;;;;;;;;;;;;;20.64;30.26;97898.16;4997978;28;763;-78
2022/09/21 09:21:46;;;;;;;;;;;;;;;20.93;29.91;97905.91;4965312;28;1229;-79
2022/09/21 09:24:16;;;;;;;;;;;;;;;21.27;29.23;97894.91;4923662;29;1157;-79
2022/09/21 09:26:44;;;;;;;;;;;;;;;21.26;29.04;97904.66;4926942;29;1503;-79
2022/09/21 09:29:32;;;;;;;;;;;;;;;20.99;29.51;97890.81;4958897;29;1891;-79
2022/09/21 09:31:58;;;;;;;;;;;;;;;20.59;30.13;97890.19;4942751;29;1214;-79
2022/09/21 09:34:25;;;;;;;;;;;;;;;20.62;30.28;97878.00;4958635;28;1176;-79
2022/09/21 09:36:55;;;;;;;;;;;;;;;20.71;30.01;97889.47;4958641;29;688;-79
2022/09/21 09:39:20;;;;;;;;;;;;;;;20.92;29.94;97887.34;4958736;29;1337;-78
2022/09/21 09:45:24;;;;;;;;;;;;;;;21.07;29.63;97885.75;4958653;29;621;-78
2022/09/21 09:48:01;;;;;;;;;;;;;;;20.99;29.90;97878.72;4957808;29;1458;-79
2022/09/21 09:50:31;;;;;;;;;;;;;;;21.01;29.57;97887.53;4957837;29;1985;-78
2022/09/21 09:53:03;;;;;;;;;;;;;;;20.92;29.66;97884.53;4958388;29;1117;-79
2022/09/21 09:55:38;;;;;;;;;;;;;;;20.98;29.55;97879.91;4958340;29;1269;-78
2022/09/21 09:58:04;;;;;;;;;;;;;;;20.62;30.12;97872.34;4958356;29;827;-79
2022/09/21 10:00:29;;;;;;;;;;;;;;;20.99;29.76;97873.06;4978772;28;1420;-79
2022/09/21 10:02:56;;;;;;;;;;;;;;;21.32;29.42;97873.81;5019626;28;1611;-79
2022/09/21 10:05:28;;;;;;;;;;;;;;;21.30;29.03;97873.47;5008558;28;770;-78
2022/09/21 10:07:53;;;;;;;;;;;;;;;21.07;29.37;97868.78;5017468;28;764;-79
2022/09/21 10:10:28;;;;;;;;;;;;;;;20.92;29.75;97867.56;5003996;28;1902;-78
2022/09/21 10:12:54;;;;;;;;;;;;;;;21.09;29.39;97855.00;5038663;28;779;-78
2022/09/21 10:15:19;;;;;;;;;;;;;;;20.80;29.82;97855.72;4988440;28;1148;-79
2022/09/21 10:17:45;;;;;;;;;;;;;;;20.89;29.73;97854.31;4980384;28;1424;-79
2022/09/21 10:20:19;;;;;;;;;;;;;;;20.78;30.09;97857.44;4980486;28;1099;-78
2022/09/21 10:22:47;;;;;;;;;;;;;;;21.09;29.58;97849.34;4980281;28;882;-79
2022/09/21 10:25:16;;;;;;;;;;;;;;;21.36;29.20;97851.06;4994228;28;1477;-79
2022/09/21 10:27:43;;;;;;;;;;;;;;;21.52;29.00;97848.19;4980216;28;793;-78
2022/09/21 10:30:28;;;;;;;;;;;;;;;21.31;28.98;97856.03;4973601;28;1977;-78
2022/09/21 10:32:55;;;;;;;;;;;;;;;20.95;29.74;97850.50;4938075;29;979;-78
2022/09/21 10:35:21;;;;;;;;;;;;;;;20.99;29.51;97850.41;4954566;29;892;-78
2022/09/21 10:37:53;;;;;;;;;;;;;;;20.88;29.64;97855.53;4953812;29;882;-79
2022/09/21 10:40:18;;;;;;;;;;;;;;;20.87;29.76;97851.91;4953066;29;835;-78
2022/09/21 10:42:44;;;;;;;;;;;;;;;20.90;29.66;97842.56;4937927;29;912;-79
2022/09/21 10:45:09;;;;;;;;;;;;;;;20.81;30.10;97848.03;4917019;29;1586;-78
2022/09/21 10:47:38;;;;;;;;;;;;;;;20.71;30.02;97834.97;4936441;28;1158;-79
2022/09/21 10:50:06;;;;;;;;;;;;;;;20.73;30.15;97844.63;4976520;28;1911;-78
2022/09/21 10:52:41;;;;;;;;;;;;;;;20.60;30.11;97849.38;4976576;28;1274;-79
2022/09/21 10:55:07;;;;;;;;;;;;;;;21.03;29.80;97851.09;4976577;28;1161;-78
2022/09/21 10:57:32;;;;;;;;;;;;;;;21.38;28.86;97845.75;4976264;28;881;-78
2022/09/21 11:00:10;;;;;;;;;;;;;;;21.08;29.35;97842.06;4974873;28;1534;-79
2022/09/21 11:02:37;;;;;;;;;;;;;;;20.72;30.12;97831.69;4990376;28;1544;-79
2022/09/21 11:05:28;;;;;;;;;;;;;;;20.68;29.95;97833.84;4992454;28;782;-79
2022/09/21 11:08:14;;;;;;;;;;;;;;;20.65;30.03;97831.88;4956863;29;941;-79
2022/09/21 11:10:43;;;;;;;;;;;;;;;20.66;29.96;97833.47;4922930;29;1903;-79
2022/09/21 11:13:10;;;;;;;;;;;;;;;21.01;29.77;97836.63;4921910;29;921;-79
2022/09/21 11:15:53;;;;;;;;;;;;;;;21.29;29.29;97835.81;4937620;29;828;-78
2022/09/21 11:18:25;;;;;;;;;;;;;;;21.42;28.61;97843.63;4921370;29;949;-78
2022/09/21 11:20:51;;;;;;;;;;;;;;;21.30;28.89;97840.28;4921557;29;732;-79
2022/09/21 11:23:35;;;;;;;;;;;;;;;21.05;29.34;97840.16;4937431;29;1109;-79
2022/09/21 11:26:18;;;;;;;;;;;;;;;20.98;29.34;97837.50;4935156;29;1491;-78
2022/09/21 11:28:49;;;;;;;;;;;;;;;20.93;29.74;97843.69;4937076;29;1060;-78
2022/09/21 11:31:15;;;;;;;;;;;;;;;20.85;29.60;97845.13;4921466;29;1911;-79
2022/09/21 11:34:09;;;;;;;;;;;;;;;20.67;30.15;97835.06;4937183;29;894;-79
2022/09/21 11:36:56;;;;;;;;;;;;;;;20.51;30.10;97850.00;4917784;29;1060;-78
2022/09/21 11:39:24;;;;;;;;;;;;;;;20.63;29.99;97857.00;4913573;29;1495;-78
2022/09/21 11:41:55;;;;;;;;;;;;;;;21.14;29.38;97860.13;4937289;29;1079;-79
2022/09/21 11:44:24;;;;;;;;;;;;;;;21.41;28.98;97859.81;4939925;29;1041;-79
2022/09/21 11:46:53;;;;;;;;;;;;;;;21.00;29.36;97854.84;4940124;29;864;-79
2022/09/21 11:49:38;;;;;;;;;;;;;;;20.86;29.90;97847.50;4956083;29;1975;-79
2022/09/21 11:52:03;;;;;;;;;;;;;;;20.84;29.84;97857.69;4939761;28;1577;-79
2022/09/21 11:54:47;;;;;;;;;;;;;;;20.96;29.54;97856.97;4975419;28;951;-79
2022/09/21 11:57:17;;;;;;;;;;;;;;;20.88;29.73;97861.19;4979636;28;763;-79
2022/09/21 12:00:02;;;;;;;;;;;;;;;21.44;29.00;97866.59;4980046;28;924;-79
2022/09/21 12:02:39;;;;;;;;;;;;;;;21.19;29.41;97870.06;4963557;28;688;-79
2022/09/21 12:05:17;;;;;;;;;;;;;;;20.93;29.70;97883.28;4963325;28;779;-78
2022/09/21 12:08:03;;;;;;;;;;;;;;;20.70;30.20;97879.41;4962117;28;1542;-78
2022/09/21 12:10:31;;;;;;;;;;;;;;;20.81;29.79;97879.16;4921914;29;1914;-79
2022/09/21 12:13:03;;;;;;;;;;;;;;;20.74;29.95;97879.34;4931402;29;1072;-78
2022/09/21 12:15:47;;;;;;;;;;;;;;;20.62;30.01;97869.50;4924974;29;1326;-78
2022/09/21 12:18:31;;;;;;;;;;;;;;;20.79;29.72;97876.78;4940922;29;1147;-78
2022/09/21 12:21:01;;;;;;;;;;;;;;;20.77;29.73;97862.25;4941310;29;864;-79
2022/09/21 12:23:46;;;;;;;;;;;;;;;20.81;29.72;97857.31;4927900;29;1644;-78
2022/09/21 12:26:14;;;;;;;;;;;;;;;20.75;29.99;97859.09;4943217;29;1525;-78
2022/09/21 12:28:41;;;;;;;;;;;;;;;20.57;30.33;97853.06;4944045;29;1336;-79
2022/09/21 12:31:27;;;;;;;;;;;;;;;20.58;30.18;97846.22;4942972;29;1910;-79
2022/09/21 12:33:55;;;;;;;;;;;;;;;20.67;29.98;97846.38;4959981;29;893;-78
2022/09/21 12:36:28;;;;;;;;;;;;;;;20.87;29.90;97859.59;4943952;29;1042;-79
2022/09/21 12:39:00;;;;;;;;;;;;;;;20.75;29.72;97853.44;4943619;29;1075;-78
2022/09/21 12:41:35;;;;;;;;;;;;;;;21.17;29.39;97858.41;4943803;29;1235;-79
2022/09/21 12:44:23;;;;;;;;;;;;;;;21.24;28.95;97847.72;4959727;29;1114;-79
2022/09/21 12:47:08;;;;;;;;;;;;;;;21.35;28.75;97849.44;4931666;28;1609;-79
2022/09/21 12:49:36;;;;;;;;;;;;;;;21.07;29.24;97844.09;4963011;28;1964;-78
2022/09/21 12:52:05;;;;;;;;;;;;;;;21.00;29.31;97846.34;4946971;28;901;-79
2022/09/21 12:54:45;;;;;;;;;;;;;;;20.71;29.84;97835.75;4961557;28;1534;-78
2022/09/21 13:00:55;;;;;;;;;;;;;;;20.67;30.09;97842.75;4978636;28;743;-79
2022/09/21 13:03:30;;;;;;;;;;;;;;;20.87;29.54;97848.31;4962409;28;931;-79
2022/09/21 13:06:05;;;;;;;;;;;;;;;21.20;29.07;97841.34;4976541;28;1533;-79
2022/09/21 13:08:32;;;;;;;;;;;;;;;21.45;28.93;97848.38;4945937;28;807;-78
2022/09/21 13:11:03;;;;;;;;;;;;;;;21.29;28.95;97857.66;4942128;28;1894;-79
2022/09/21 13:13:34;;;;;;;;;;;;;;;21.16;29.34;97854.78;4957769;28;1517;-79
2022/09/21 13:16:00;;;;;;;;;;;;;;;20.98;29.43;97865.78;4978302;28;700;-79
2022/09/21 13:18:27;;;;;;;;;;;;;;;20.71;29.79;97861.22;4962220;28;1065;-79
2022/09/21 13:20:53;;;;;;;;;;;;;;;20.78;29.99;97863.88;4978359;28;767;-78
2022/09/21 13:23:25;;;;;;;;;;;;;;;21.30;29.04;97865.75;4973964;28;945;-78
2022/09/21 13:26:10;;;;;;;;;;;;;;;21.47;28.65;97874.19;4985892;28;783;-78
2022/09/21 13:28:53;;;;;;;;;;;;;;;21.21;29.05;97856.28;4998910;28;1459;-78
2022/09/21 13:31:38;;;;;;;;;;;;;;;21.08;29.32;97873.19;5036699;28;1975;-79
2022/09/21 13:34:22;;;;;;;;;;;;;;;20.73;29.76;97887.03;5037371;28;1530;-79
2022/09/21 13:40:23;;;;;;;;;;;;;;;20.62;30.21;97892.13;5039068;28;648;-78
2022/09/21 13:42:49;;;;;;;;;;;;;;;21.25;28.98;97893.78;5039118;28;707;-79
2022/09/21 13:45:16;;;;;;;;;;;;;;;21.42;28.91;97886.06;5037389;28;1471;-78
2022/09/21 13:47:56;;;;;;;;;;;;;;;21.22;29.04;97889.78;5037127;28;1566;-78
2022/09/21 13:50:25;;;;;;;;;;;;;;;21.06;29.08;97884.16;5021133;28;1918;-78
2022/09/21 13:52:58;;;;;;;;;;;;;;;20.75;29.82;97872.44;5021202;28;754;-79
2022/09/21 13:55:26;;;;;;;;;;;;;;;20.74;29.94;97880.13;5020943;28;743;-79